sensor_id;sensor_type;location;lat;lon;timestamp;pressure;altitude;pressure_sealevel;temperature;humidity
6413;BME280;3239;48.714;9.472;2023-07-29T00:02:01;98074.44;;;19.07;100.00
6413;BME280;3239;48.714;9.472;2023-07-29T00:04:26;98072.97;;;19.06;100.00
6413;BME280;3239;48.714;9.472;2023-07-29T00:06:52;98061.72;;;19.04;100.00
6413;BME280;3239;48.714;9.472;2023-07-29T00:09:18;98057.50;;;19.03;100.00
6413;BME280;3239;48.714;9.472;2023-07-29T00:11:44;98054.72;;;19.03;100.00
6413;BME280;3239;48.714;9.472;2023-07-29T00:14:09;98047.69;;;19.02;100.00
6413;BME280;3239;48.714;9.472;2023-07-29T00:16:35;98036.44;;;19.00;100.00
6413;BME280;3239;48.714;9.472;2023-07-29T00:19:02;98033.66;;;19.00;100.00
6413;BME280;3239;48.714;9.472;2023-07-29T00:21:28;98044.03;;;19.00;100.00
6413;BME280;3239;48.714;9.472;2023-07-29T00:23:54;98044.63;;;18.98;100.00
6413;BME280;3239;48.714;9.472;2023-07-29T00:26:21;98038.47;;;19.00;100.00
6413;BME280;3239;48.714;9.472;2023-07-29T00:28:47;98037.19;;;19.01;100.00
6413;BME280;3239;48.714;9.472;2023-07-29T00:31:13;98045.50;;;19.01;100.00
6413;BME280;3239;48.714;9.472;2023-07-29T00:33:38;98034.41;;;19.01;100.00
6413;BME280;3239;48.714;9.472;2023-07-29T00:36:04;98033.06;;;19.02;100.00
6413;BME280;3239;48.714;9.472;2023-07-29T00:38:30;98039.94;;;19.01;100.00
6413;BME280;3239;48.714;9.472;2023-07-29T00:41:01;98040.66;;;19.01;100.00
6413;BME280;3239;48.714;9.472;2023-07-29T00:43:27;98046.78;;;19.00;100.00
6413;BME280;3239;48.714;9.472;2023-07-29T00:45:53;98046.09;;;18.99;100.00
6413;BME280;3239;48.714;9.472;2023-07-29T00:48:19;98046.09;;;18.99;100.00
6413;BME280;3239;48.714;9.472;2023-07-29T00:50:45;98032.78;;;18.98;100.00
6413;BME280;3239;48.714;9.472;2023-07-29T00:53:11;98021.66;;;18.98;100.00
6413;BME280;3239;48.714;9.472;2023-07-29T00:55:37;98022.84;;;18.95;100.00
6413;BME280;3239;48.714;9.472;2023-07-29T00:58:03;98024.16;;;18.94;100.00
6413;BME280;3239;48.714;9.472;2023-07-29T01:00:29;98031.19;;;18.95;100.00
6413;BME280;3239;48.714;9.472;2023-07-29T01:02:55;98027.66;;;18.94;100.00
6413;BME280;3239;48.714;9.472;2023-07-29T01:05:21;98041.56;;;18.94;100.00
6413;BME280;3239;48.714;9.472;2023-07-29T01:08:11;98044.31;;;18.94;100.00
6413;BME280;3239;48.714;9.472;2023-07-29T01:14:04;98037.16;;;18.91;100.00
6413;BME280;3239;48.714;9.472;2023-07-29T01:16:39;98035.13;;;18.92;100.00
6413;BME280;3239;48.714;9.472;2023-07-29T01:19:15;98026.06;;;18.91;100.00
6413;BME280;3239;48.714;9.472;2023-07-29T01:21:47;98024.00;;;18.92;100.00
6413;BME280;3239;48.714;9.472;2023-07-29T01:24:12;98019.03;;;18.90;100.00
6413;BME280;3239;48.714;9.472;2023-07-29T01:26:38;98014.06;;;18.89;100.00
6413;BME280;3239;48.714;9.472;2023-07-29T01:29:04;98010.56;;;18.88;100.00
6413;BME280;3239;48.714;9.472;2023-07-29T01:31:43;98007.06;;;18.88;100.00
6413;BME280;3239;48.714;9.472;2023-07-29T01:34:20;98005.59;;;18.87;100.00
6413;BME280;3239;48.714;9.472;2023-07-29T01:36:51;98009.13;;;18.87;100.00
6413;BME280;3239;48.714;9.472;2023-07-29T01:39:20;98018.16;;;18.88;100.00
6413;BME280;3239;48.714;9.472;2023-07-29T01:41:48;98013.34;;;18.88;100.00
6413;BME280;3239;48.714;9.472;2023-07-29T01:44:14;98003.56;;;18.87;100.00
6413;BME280;3239;48.714;9.472;2023-07-29T01:46:40;98006.34;;;18.87;100.00
6413;BME280;3239;48.714;9.472;2023-07-29T01:49:06;98015.38;;;18.88;100.00
6413;BME280;3239;48.714;9.472;2023-07-29T01:51:32;98018.16;;;18.88;100.00
6413;BME280;3239;48.714;9.472;2023-07-29T01:53:58;98026.50;;;18.88;100.00
6413;BME280;3239;48.714;9.472;2023-07-29T01:56:25;98016.72;;;18.87;100.00
6413;BME280;3239;48.714;9.472;2023-07-29T01:58:50;98027.81;;;18.87;100.00
6413;BME280;3239;48.714;9.472;2023-07-29T02:01:16;98018.75;;;18.86;100.00
6413;BME280;3239;48.714;9.472;2023-07-29T02:03:42;98016.72;;;18.87;100.00
6413;BME280;3239;48.714;9.472;2023-07-29T02:06:08;98010.41;;;18.86;100.00
6413;BME280;3239;48.714;9.472;2023-07-29T02:08:34;98013.19;;;18.86;100.00
6413;BME280;3239;48.714;9.472;2023-07-29T02:10:59;98013.06;;;18.84;100.00
6413;BME280;3239;48.714;9.472;2023-07-29T02:16:53;98001.94;;;18.84;100.00
6413;BME280;3239;48.714;9.472;2023-07-29T02:19:19;98006.03;;;18.83;100.00
6413;BME280;3239;48.714;9.472;2023-07-29T02:21:45;98001.81;;;18.82;100.00
6413;BME280;3239;48.714;9.472;2023-07-29T02:24:10;98005.16;;;18.81;100.00
6413;BME280;3239;48.714;9.472;2023-07-29T02:26:36;98003.84;;;18.82;100.00
6413;BME280;3239;48.714;9.472;2023-07-29T02:29:02;98010.72;;;18.81;100.00
6413;BME280;3239;48.714;9.472;2023-07-29T02:31:28;98013.50;;;18.81;100.00
6413;BME280;3239;48.714;9.472;2023-07-29T02:33:53;98005.00;;;18.79;100.00
6413;BME280;3239;48.714;9.472;2023-07-29T02:36:19;98006.31;;;18.78;100.00
6413;BME280;3239;48.714;9.472;2023-07-29T02:38:45;98001.50;;;18.78;100.00
6413;BME280;3239;48.714;9.472;2023-07-29T02:41:11;98000.06;;;18.77;100.00
6413;BME280;3239;48.714;9.472;2023-07-29T02:43:43;98002.84;;;18.77;100.00
6413;BME280;3239;48.714;9.472;2023-07-29T02:46:09;97997.28;;;18.77;100.00
6413;BME280;3239;48.714;9.472;2023-07-29T02:48:34;97990.28;;;18.76;100.00
6413;BME280;3239;48.714;9.472;2023-07-29T02:51:00;97986.75;;;18.76;100.00
6413;BME280;3239;48.714;9.472;2023-07-29T02:53:26;97986.75;;;18.76;100.00
6413;BME280;3239;48.714;9.472;2023-07-29T02:55:51;97987.78;;;18.71;100.00
6413;BME280;3239;48.714;9.472;2023-07-29T02:58:17;97989.66;;;18.68;100.00
6413;BME280;3239;48.714;9.472;2023-07-29T03:00:43;97983.38;;;18.68;100.00
6413;BME280;3239;48.714;9.472;2023-07-29T03:03:09;97993.03;;;18.67;100.00
6413;BME280;3239;48.714;9.472;2023-07-29T03:05:35;97984.00;;;18.66;100.00
6413;BME280;3239;48.714;9.472;2023-07-29T03:08:01;97983.25;;;18.66;100.00
6413;BME280;3239;48.714;9.472;2023-07-29T03:10:26;97980.47;;;18.66;100.00
6413;BME280;3239;48.714;9.472;2023-07-29T03:12:55;97979.16;;;18.67;100.00
6413;BME280;3239;48.714;9.472;2023-07-29T03:15:25;97975.66;;;18.66;100.00
6413;BME280;3239;48.714;9.472;2023-07-29T03:17:51;97976.38;;;18.67;100.00
6413;BME280;3239;48.714;9.472;2023-07-29T03:20:17;97972.28;;;18.68;100.00
6413;BME280;3239;48.714;9.472;2023-07-29T03:22:44;97971.00;;;18.69;100.00
6413;BME280;3239;48.714;9.472;2023-07-29T03:25:10;97965.44;;;18.69;100.00
6413;BME280;3239;48.714;9.472;2023-07-29T03:27:36;97959.00;;;18.66;100.00
6413;BME280;3239;48.714;9.472;2023-07-29T03:30:06;97955.50;;;18.66;100.00
6413;BME280;3239;48.714;9.472;2023-07-29T03:32:32;97958.28;;;18.66;100.00
6413;BME280;3239;48.714;9.472;2023-07-29T03:34:58;97961.03;;;18.66;100.00
6413;BME280;3239;48.714;9.472;2023-07-29T03:37:24;97953.28;;;18.64;100.00
6413;BME280;3239;48.714;9.472;2023-07-29T03:39:50;97951.25;;;18.65;100.00
6413;BME280;3239;48.714;9.472;2023-07-29T03:42:17;97950.53;;;18.64;100.00
6413;BME280;3239;48.714;9.472;2023-07-29T03:44:43;97949.81;;;18.64;100.00
6413;BME280;3239;48.714;9.472;2023-07-29T03:47:09;97953.28;;;18.64;100.00
6413;BME280;3239;48.714;9.472;2023-07-29T03:49:35;97953.28;;;18.64;100.00
6413;BME280;3239;48.714;9.472;2023-07-29T03:52:00;97961.63;;;18.64;100.00
6413;BME280;3239;48.714;9.472;2023-07-29T03:54:26;97961.63;;;18.64;100.00
6413;BME280;3239;48.714;9.472;2023-07-29T03:56:52;97968.63;;;18.65;100.00
6413;BME280;3239;48.714;9.472;2023-07-29T03:59:17;97972.72;;;18.64;100.00
6413;BME280;3239;48.714;9.472;2023-07-29T04:01:43;97974.19;;;18.65;100.00
6413;BME280;3239;48.714;9.472;2023-07-29T04:04:09;97969.22;;;18.64;100.00
6413;BME280;3239;48.714;9.472;2023-07-29T04:06:35;97967.91;;;18.65;100.00
6413;BME280;3239;48.714;9.472;2023-07-29T04:09:01;97966.47;;;18.64;100.00
6413;BME280;3239;48.714;9.472;2023-07-29T04:11:26;97956.06;;;18.64;100.00
6413;BME280;3239;48.714;9.472;2023-07-29T04:13:52;97958.13;;;18.64;100.00
6413;BME280;3239;48.714;9.472;2023-07-29T04:16:18;97965.84;;;18.65;100.00
6413;BME280;3239;48.714;9.472;2023-07-29T04:18:43;97972.16;;;18.66;100.00
6413;BME280;3239;48.714;9.472;2023-07-29T04:21:09;97971.41;;;18.65;100.00
6413;BME280;3239;48.714;9.472;2023-07-29T04:23:35;97965.13;;;18.65;100.00
6413;BME280;3239;48.714;9.472;2023-07-29T04:26:01;97963.06;;;18.65;100.00
6413;BME280;3239;48.714;9.472;2023-07-29T04:28:26;97961.63;;;18.64;100.00
6413;BME280;3239;48.714;9.472;2023-07-29T04:30:52;97961.50;;;18.62;100.00
6413;BME280;3239;48.714;9.472;2023-07-29T04:33:18;97959.41;;;18.63;100.00
6413;BME280;3239;48.714;9.472;2023-07-29T04:35:44;97964.97;;;18.63;100.00
6413;BME280;3239;48.714;9.472;2023-07-29T04:38:09;97957.38;;;18.63;100.00
6413;BME280;3239;48.714;9.472;2023-07-29T04:40:35;97969.22;;;18.64;100.00
6413;BME280;3239;48.714;9.472;2023-07-29T04:43:01;97971.41;;;18.65;100.00
6413;BME280;3239;48.714;9.472;2023-07-29T04:45:30;97975.06;;;18.68;100.00
6413;BME280;3239;48.714;9.472;2023-07-29T04:47:58;97959.16;;;18.68;100.00
6413;BME280;3239;48.714;9.472;2023-07-29T04:50:24;97967.59;;;18.70;100.00
6413;BME280;3239;48.714;9.472;2023-07-29T04:52:49;97975.34;;;18.72;100.00
6413;BME280;3239;48.714;9.472;2023-07-29T04:55:15;97974.63;;;18.71;100.00
6413;BME280;3239;48.714;9.472;2023-07-29T04:57:41;97992.75;;;18.72;100.00
6413;BME280;3239;48.714;9.472;2023-07-29T05:00:07;98017.72;;;18.72;100.00
6413;BME280;3239;48.714;9.472;2023-07-29T05:02:33;98017.72;;;18.72;100.00
6413;BME280;3239;48.714;9.472;2023-07-29T05:04:59;98015.53;;;18.71;100.00
6413;BME280;3239;48.714;9.472;2023-07-29T05:07:24;98009.22;;;18.70;100.00
6413;BME280;3239;48.714;9.472;2023-07-29T05:09:50;98011.28;;;18.70;100.00
6413;BME280;3239;48.714;9.472;2023-07-29T05:12:16;98009.22;;;18.70;100.00
6413;BME280;3239;48.714;9.472;2023-07-29T05:14:42;98009.97;;;18.71;100.00
6413;BME280;3239;48.714;9.472;2023-07-29T05:17:07;98021.66;;;18.69;100.00
6413;BME280;3239;48.714;9.472;2023-07-29T05:19:33;98032.75;;;18.69;100.00
6413;BME280;3239;48.714;9.472;2023-07-29T05:21:59;98025.16;;;18.70;100.00
6413;BME280;3239;48.714;9.472;2023-07-29T05:24:24;98035.53;;;18.69;100.00
6413;BME280;3239;48.714;9.472;2023-07-29T05:26:50;98036.84;;;18.68;100.00
6413;BME280;3239;48.714;9.472;2023-07-29T05:29:16;98041.66;;;18.68;100.00
6413;BME280;3239;48.714;9.472;2023-07-29T05:31:41;98064.59;;;18.68;100.00
6413;BME280;3239;48.714;9.472;2023-07-29T05:34:07;98058.31;;;18.68;100.00
6413;BME280;3239;48.714;9.472;2023-07-29T05:36:34;98065.34;;;18.69;100.00
6413;BME280;3239;48.714;9.472;2023-07-29T05:38:59;98058.16;;;18.66;100.00
6413;BME280;3239;48.714;9.472;2023-07-29T05:41:25;98054.66;;;18.65;100.00
6413;BME280;3239;48.714;9.472;2023-07-29T05:43:53;98070.28;;;18.61;100.00
6413;BME280;3239;48.714;9.472;2023-07-29T05:46:19;98070.16;;;18.59;100.00
6413;BME280;3239;48.714;9.472;2023-07-29T05:48:44;98068.69;;;18.58;100.00
6413;BME280;3239;48.714;9.472;2023-07-29T05:51:10;98067.94;;;18.57;100.00
6413;BME280;3239;48.714;9.472;2023-07-29T05:53:36;98068.09;;;18.59;100.00
6413;BME280;3239;48.714;9.472;2023-07-29T05:56:01;98079.78;;;18.58;100.00
6413;BME280;3239;48.714;9.472;2023-07-29T05:58:28;98065.31;;;18.59;100.00
6413;BME280;3239;48.714;9.472;2023-07-29T06:00:53;98075.69;;;18.59;100.00
6413;BME280;3239;48.714;9.472;2023-07-29T06:03:19;98082.56;;;18.58;100.00
6413;BME280;3239;48.714;9.472;2023-07-29T06:05:45;98091.59;;;18.58;100.00
6413;BME280;3239;48.714;9.472;2023-07-29T06:08:10;98110.44;;;18.60;100.00
6413;BME280;3239;48.714;9.472;2023-07-29T06:10:36;98110.75;;;18.64;100.00
6413;BME280;3239;48.714;9.472;2023-07-29T06:13:02;98105.94;;;18.64;100.00
6413;BME280;3239;48.714;9.472;2023-07-29T06:15:28;98108.88;;;18.66;100.00
6413;BME280;3239;48.714;9.472;2023-07-29T06:17:54;98115.31;;;18.69;100.00
6413;BME280;3239;48.714;9.472;2023-07-29T06:20:19;98123.34;;;18.74;100.00
6413;BME280;3239;48.714;9.472;2023-07-29T06:22:45;98108.88;;;18.76;100.00
6413;BME280;3239;48.714;9.472;2023-07-29T06:25:11;98116.03;;;18.79;100.00
6413;BME280;3239;48.714;9.472;2023-07-29T06:27:36;98123.81;;;18.90;100.00
6413;BME280;3239;48.714;9.472;2023-07-29T06:30:02;98126.03;;;19.01;100.00
6413;BME280;3239;48.714;9.472;2023-07-29T06:32:28;98129.25;;;19.16;100.00
6413;BME280;3239;48.714;9.472;2023-07-29T06:34:54;98141.00;;;19.34;100.00
6413;BME280;3239;48.714;9.472;2023-07-29T06:37:20;98131.50;;;19.46;100.00
6413;BME280;3239;48.714;9.472;2023-07-29T06:39:46;98130.59;;;19.53;100.00
6413;BME280;3239;48.714;9.472;2023-07-29T06:42:11;98130.59;;;19.53;100.00
6413;BME280;3239;48.714;9.472;2023-07-29T06:44:37;98120.22;;;19.54;100.00
6413;BME280;3239;48.714;9.472;2023-07-29T06:47:04;98115.38;;;19.54;100.00
6413;BME280;3239;48.714;9.472;2023-07-29T06:49:29;98109.84;;;19.64;100.00
6413;BME280;3239;48.714;9.472;2023-07-29T06:51:55;98107.31;;;19.77;100.00
6413;BME280;3239;48.714;9.472;2023-07-29T06:54:25;98107.88;;;19.85;100.00
6413;BME280;3239;48.714;9.472;2023-07-29T06:56:53;98099.69;;;19.87;100.00
6413;BME280;3239;48.714;9.472;2023-07-29T06:59:19;98097.50;;;19.86;100.00
6413;BME280;3239;48.714;9.472;2023-07-29T07:01:46;98093.69;;;19.81;100.00
6413;BME280;3239;48.714;9.472;2023-07-29T07:04:12;98098.81;;;19.75;100.00
6413;BME280;3239;48.714;9.472;2023-07-29T07:06:38;98105.88;;;19.67;100.00
6413;BME280;3239;48.714;9.472;2023-07-29T07:09:03;98108.97;;;19.61;100.00
6413;BME280;3239;48.714;9.472;2023-07-29T07:11:29;98098.88;;;19.56;100.00
6413;BME280;3239;48.714;9.472;2023-07-29T07:13:55;98136.75;;;19.52;100.00
6413;BME280;3239;48.714;9.472;2023-07-29T07:16:20;98148.16;;;19.46;100.00
6413;BME280;3239;48.714;9.472;2023-07-29T07:18:46;98155.47;;;19.42;100.00
6413;BME280;3239;48.714;9.472;2023-07-29T07:21:12;98153.88;;;19.39;100.00
6413;BME280;3239;48.714;9.472;2023-07-29T07:23:39;98170.22;;;19.35;100.00
6413;BME280;3239;48.714;9.472;2023-07-29T07:26:05;98194.22;;;19.30;100.00
6413;BME280;3239;48.714;9.472;2023-07-29T07:28:30;98185.44;;;19.24;100.00
6413;BME280;3239;48.714;9.472;2023-07-29T07:30:56;98181.28;;;19.16;100.00
6413;BME280;3239;48.714;9.472;2023-07-29T07:33:22;98185.25;;;19.13;100.00
6413;BME280;3239;48.714;9.472;2023-07-29T07:35:48;98184.78;;;19.07;100.00
6413;BME280;3239;48.714;9.472;2023-07-29T07:38:14;98197.03;;;19.04;100.00
6413;BME280;3239;48.714;9.472;2023-07-29T07:40:40;98207.44;;;19.03;100.00
6413;BME280;3239;48.714;9.472;2023-07-29T07:43:05;98203.19;;;19.02;100.00
6413;BME280;3239;48.714;9.472;2023-07-29T07:45:32;98214.28;;;19.02;100.00
6413;BME280;3239;48.714;9.472;2023-07-29T07:47:58;98217.81;;;19.03;100.00
6413;BME280;3239;48.714;9.472;2023-07-29T07:50:24;98226.28;;;19.05;100.00
6413;BME280;3239;48.714;9.472;2023-07-29T07:52:50;98227.91;;;19.08;100.00
6413;BME280;3239;48.714;9.472;2023-07-29T07:55:16;98216.53;;;19.13;100.00
6413;BME280;3239;48.714;9.472;2023-07-29T07:57:41;98218.44;;;19.20;100.00
6413;BME280;3239;48.714;9.472;2023-07-29T08:00:08;98234.44;;;19.29;100.00
6413;BME280;3239;48.714;9.472;2023-07-29T08:02:35;98224.66;;;19.38;100.00
6413;BME280;3239;48.714;9.472;2023-07-29T08:05:00;98222.16;;;19.42;100.00
6413;BME280;3239;48.714;9.472;2023-07-29T08:07:26;98220.25;;;19.44;100.00
6413;BME280;3239;48.714;9.472;2023-07-29T08:09:52;98222.75;;;19.50;100.00
6413;BME280;3239;48.714;9.472;2023-07-29T08:12:17;98216.75;;;19.53;100.00
6413;BME280;3239;48.714;9.472;2023-07-29T08:14:43;98218.22;;;19.54;100.00
6413;BME280;3239;48.714;9.472;2023-07-29T08:17:09;98212.06;;;19.56;100.00
6413;BME280;3239;48.714;9.472;2023-07-29T08:19:34;98205.94;;;19.57;100.00
6413;BME280;3239;48.714;9.472;2023-07-29T08:22:02;98204.91;;;19.62;100.00
6413;BME280;3239;48.714;9.472;2023-07-29T08:24:28;98206.38;;;19.73;100.00
6413;BME280;3239;48.714;9.472;2023-07-29T08:26:54;98221.00;;;19.83;100.00
6413;BME280;3239;48.714;9.472;2023-07-29T08:29:20;98220.16;;;19.90;100.00
6413;BME280;3239;48.714;9.472;2023-07-29T08:31:45;98214.41;;;19.97;100.00
6413;BME280;3239;48.714;9.472;2023-07-29T08:34:11;98214.44;;;20.07;100.00
6413;BME280;3239;48.714;9.472;2023-07-29T08:36:37;98206.06;;;20.16;100.00
6413;BME280;3239;48.714;9.472;2023-07-29T08:39:03;98211.88;;;20.39;100.00
6413;BME280;3239;48.714;9.472;2023-07-29T08:41:35;98217.50;;;20.60;100.00
6413;BME280;3239;48.714;9.472;2023-07-29T08:44:15;98207.25;;;20.63;100.00
6413;BME280;3239;48.714;9.472;2023-07-29T08:46:44;98197.59;;;20.64;100.00
6413;BME280;3239;48.714;9.472;2023-07-29T08:49:12;98205.22;;;20.63;100.00
6413;BME280;3239;48.714;9.472;2023-07-29T08:51:43;98199.94;;;20.58;100.00
6413;BME280;3239;48.714;9.472;2023-07-29T08:54:10;98197.63;;;20.54;100.00
6413;BME280;3239;48.714;9.472;2023-07-29T08:56:36;98204.63;;;20.55;100.00
6413;BME280;3239;48.714;9.472;2023-07-29T08:59:03;98205.34;;;20.65;100.00
6413;BME280;3239;48.714;9.472;2023-07-29T09:01:30;98209.63;;;20.87;100.00
6413;BME280;3239;48.714;9.472;2023-07-29T09:03:56;98227.38;;;21.22;100.00
6413;BME280;3239;48.714;9.472;2023-07-29T09:06:23;98216.25;;;21.43;100.00
6413;BME280;3239;48.714;9.472;2023-07-29T09:08:51;98205.84;;;21.44;100.00
6413;BME280;3239;48.714;9.472;2023-07-29T09:11:19;98207.09;;;21.73;100.00
6413;BME280;3239;48.714;9.472;2023-07-29T09:13:46;98194.16;;;22.10;100.00
6413;BME280;3239;48.714;9.472;2023-07-29T09:16:12;98179.91;;;22.50;100.00
6413;BME280;3239;48.714;9.472;2023-07-29T09:18:38;98172.00;;;23.16;100.00
6413;BME280;3239;48.714;9.472;2023-07-29T09:21:04;98137.88;;;23.90;100.00
6413;BME280;3239;48.714;9.472;2023-07-29T09:23:40;98089.78;;;24.46;100.00
6413;BME280;3239;48.714;9.472;2023-07-29T09:26:06;98041.09;;;24.93;100.00
6413;BME280;3239;48.714;9.472;2023-07-29T09:28:38;97998.31;;;25.06;100.00
6413;BME280;3239;48.714;9.472;2023-07-29T09:31:04;97938.09;;;25.23;100.00
6413;BME280;3239;48.714;9.472;2023-07-29T09:33:35;97900.09;;;25.04;100.00
6413;BME280;3239;48.714;9.472;2023-07-29T09:36:09;97890.06;;;24.99;100.00
6413;BME280;3239;48.714;9.472;2023-07-29T09:38:37;97896.19;;;24.96;100.00
6413;BME280;3239;48.714;9.472;2023-07-29T09:41:02;97866.50;;;24.91;100.00
6413;BME280;3239;48.714;9.472;2023-07-29T09:43:32;97835.09;;;25.08;100.00
6413;BME280;3239;48.714;9.472;2023-07-29T09:46:05;97843.91;;;25.31;100.00
6413;BME280;3239;48.714;9.472;2023-07-29T09:48:34;97848.03;;;25.15;100.00
6413;BME280;3239;48.714;9.472;2023-07-29T09:51:13;97843.91;;;24.87;100.00
6413;BME280;3239;48.714;9.472;2023-07-29T09:53:47;97856.91;;;24.80;100.00
6413;BME280;3239;48.714;9.472;2023-07-29T09:56:14;97847.97;;;24.84;100.00
6413;BME280;3239;48.714;9.472;2023-07-29T09:58:43;97866.44;;;25.04;100.00
6413;BME280;3239;48.714;9.472;2023-07-29T10:01:11;97864.97;;;25.32;100.00
6413;BME280;3239;48.714;9.472;2023-07-29T10:03:37;97833.56;;;26.15;100.00
6413;BME280;3239;48.714;9.472;2023-07-29T10:06:05;97801.88;;;26.83;100.00
6413;BME280;3239;48.714;9.472;2023-07-29T10:08:31;97805.13;;;27.12;100.00
6413;BME280;3239;48.714;9.472;2023-07-29T10:11:00;97791.66;;;27.28;100.00
6413;BME280;3239;48.714;9.472;2023-07-29T10:13:26;97784.78;;;27.72;100.00
6413;BME280;3239;48.714;9.472;2023-07-29T10:15:54;97752.78;;;27.62;100.00
6413;BME280;3239;48.714;9.472;2023-07-29T10:18:22;97736.66;;;27.64;100.00
6413;BME280;3239;48.714;9.472;2023-07-29T10:20:51;97733.13;;;27.64;100.00
6413;BME280;3239;48.714;9.472;2023-07-29T10:23:18;97727.69;;;27.70;100.00
6413;BME280;3239;48.714;9.472;2023-07-29T10:25:52;97744.47;;;27.66;100.00
6413;BME280;3239;48.714;9.472;2023-07-29T10:28:20;97734.28;;;27.57;100.00
6413;BME280;3239;48.714;9.472;2023-07-29T10:30:51;97739.28;;;27.58;100.00
6413;BME280;3239;48.714;9.472;2023-07-29T10:33:17;97748.28;;;27.74;100.00
6413;BME280;3239;48.714;9.472;2023-07-29T10:35:43;97719.59;;;27.58;100.00
6413;BME280;3239;48.714;9.472;2023-07-29T10:38:10;97718.22;;;27.40;100.00
6413;BME280;3239;48.714;9.472;2023-07-29T10:40:56;97738.19;;;27.09;100.00
6413;BME280;3239;48.714;9.472;2023-07-29T10:43:33;97731.56;;;26.63;100.00
6413;BME280;3239;48.714;9.472;2023-07-29T10:48:51;97742.22;;;26.14;100.00
6413;BME280;3239;48.714;9.472;2023-07-29T10:54:09;97741.38;;;25.77;100.00
6413;BME280;3239;48.714;9.472;2023-07-29T10:56:41;97731.06;;;25.48;100.00
6413;BME280;3239;48.714;9.472;2023-07-29T11:01:50;97751.69;;;25.24;100.00
6413;BME280;3239;48.714;9.472;2023-07-29T11:09:40;97758.47;;;25.34;100.00
6413;BME280;3239;48.714;9.472;2023-07-29T11:12:50;97734.44;;;25.29;100.00
6413;BME280;3239;48.714;9.472;2023-07-29T11:15:29;97744.72;;;25.40;100.00
6413;BME280;3239;48.714;9.472;2023-07-29T11:18:00;97736.03;;;25.50;100.00
6413;BME280;3239;48.714;9.472;2023-07-29T11:20:29;97730.53;;;25.36;100.00
6413;BME280;3239;48.714;9.472;2023-07-29T11:22:57;97752.69;;;25.30;100.00
6413;BME280;3239;48.714;9.472;2023-07-29T11:25:25;97753.75;;;25.23;100.00
6413;BME280;3239;48.714;9.472;2023-07-29T11:27:56;97752.00;;;25.30;100.00
6413;BME280;3239;48.714;9.472;2023-07-29T11:30:23;97768.53;;;25.39;100.00
6413;BME280;3239;48.714;9.472;2023-07-29T11:32:53;97768.22;;;25.49;100.00
6413;BME280;3239;48.714;9.472;2023-07-29T11:35:20;97747.31;;;25.52;100.00
6413;BME280;3239;48.714;9.472;2023-07-29T11:37:49;97756.38;;;25.50;100.00
6413;BME280;3239;48.714;9.472;2023-07-29T11:40:20;97774.31;;;25.43;100.00
6413;BME280;3239;48.714;9.472;2023-07-29T11:42:48;97776.50;;;25.29;100.00
6413;BME280;3239;48.714;9.472;2023-07-29T11:45:16;97769.59;;;25.17;100.00
6413;BME280;3239;48.714;9.472;2023-07-29T11:47:42;97761.53;;;25.09;100.00
6413;BME280;3239;48.714;9.472;2023-07-29T11:50:10;97752.06;;;25.01;100.00
6413;BME280;3239;48.714;9.472;2023-07-29T11:52:37;97739.31;;;25.13;100.00
6413;BME280;3239;48.714;9.472;2023-07-29T11:55:04;97740.03;;;25.29;100.00
6413;BME280;3239;48.714;9.472;2023-07-29T11:57:33;97738.66;;;25.30;100.00
6413;BME280;3239;48.714;9.472;2023-07-29T12:00:03;97724.53;;;25.44;100.00
6413;BME280;3239;48.714;9.472;2023-07-29T12:02:32;97723.06;;;25.58;100.00
6413;BME280;3239;48.714;9.472;2023-07-29T12:05:00;97723.88;;;25.61;100.00
6413;BME280;3239;48.714;9.472;2023-07-29T12:07:27;97738.97;;;25.69;100.00
6413;BME280;3239;48.714;9.472;2023-07-29T12:09:53;97731.41;;;25.74;100.00
6413;BME280;3239;48.714;9.472;2023-07-29T12:12:18;97724.28;;;25.71;100.00
6413;BME280;3239;48.714;9.472;2023-07-29T12:14:45;97712.16;;;25.66;100.00
6413;BME280;3239;48.714;9.472;2023-07-29T12:17:14;97707.59;;;25.75;100.00
6413;BME280;3239;48.714;9.472;2023-07-29T12:19:42;97706.09;;;25.72;100.00
6413;BME280;3239;48.714;9.472;2023-07-29T12:22:09;97700.00;;;25.77;100.00
6413;BME280;3239;48.714;9.472;2023-07-29T12:24:38;97694.25;;;25.73;100.00
6413;BME280;3239;48.714;9.472;2023-07-29T12:27:05;97691.25;;;25.69;100.00
6413;BME280;3239;48.714;9.472;2023-07-29T12:29:31;97688.31;;;25.83;100.00
6413;BME280;3239;48.714;9.472;2023-07-29T12:32:06;97689.31;;;25.74;100.00
6413;BME280;3239;48.714;9.472;2023-07-29T12:34:32;97690.22;;;25.78;100.00
6413;BME280;3239;48.714;9.472;2023-07-29T12:36:59;97677.63;;;25.62;100.00
6413;BME280;3239;48.714;9.472;2023-07-29T12:39:30;97684.59;;;25.61;100.00
6413;BME280;3239;48.714;9.472;2023-07-29T12:41:58;97687.66;;;25.67;100.00
6413;BME280;3239;48.714;9.472;2023-07-29T12:44:30;97650.03;;;25.74;100.00
6413;BME280;3239;48.714;9.472;2023-07-29T12:46:56;97644.81;;;25.66;100.00
6413;BME280;3239;48.714;9.472;2023-07-29T12:49:22;97648.19;;;25.63;100.00
6413;BME280;3239;48.714;9.472;2023-07-29T12:51:48;97651.38;;;25.55;100.00
6413;BME280;3239;48.714;9.472;2023-07-29T12:54:14;97646.25;;;25.67;100.00
6413;BME280;3239;48.714;9.472;2023-07-29T12:56:40;97649.00;;;25.65;100.00
6413;BME280;3239;48.714;9.472;2023-07-29T12:59:06;97649.69;;;25.48;100.00
6413;BME280;3239;48.714;9.472;2023-07-29T13:01:32;97641.84;;;25.62;100.00
6413;BME280;3239;48.714;9.472;2023-07-29T13:03:58;97637.53;;;25.59;100.00
6413;BME280;3239;48.714;9.472;2023-07-29T13:06:24;97651.56;;;25.59;100.00
6413;BME280;3239;48.714;9.472;2023-07-29T13:08:49;97648.34;;;25.49;100.00
6413;BME280;3239;48.714;9.472;2023-07-29T13:11:16;97641.78;;;25.60;100.00
6413;BME280;3239;48.714;9.472;2023-07-29T13:13:42;97648.34;;;25.49;100.00
6413;BME280;3239;48.714;9.472;2023-07-29T13:16:08;97642.91;;;25.53;100.00
6413;BME280;3239;48.714;9.472;2023-07-29T13:18:34;97640.78;;;25.54;100.00
6413;BME280;3239;48.714;9.472;2023-07-29T13:21:01;97638.78;;;25.56;100.00
6413;BME280;3239;48.714;9.472;2023-07-29T13:23:27;97644.91;;;25.51;100.00
6413;BME280;3239;48.714;9.472;2023-07-29T13:25:55;97645.88;;;25.57;100.00
6413;BME280;3239;48.714;9.472;2023-07-29T13:28:21;97645.47;;;25.65;100.00
6413;BME280;3239;48.714;9.472;2023-07-29T13:30:47;97640.00;;;25.69;100.00